Time;durP1;ratioP1;P1;durP2;ratioP2;P2;SDS_P1;SDS_P2;PMS_P1;PMS_P2;Temp;Humidity;BMP_temperature;BMP_pressure;BME280_temperature;BME280_humidity;BME280_pressure;Samples;Min_cycle;Max_cycle;Signal;HPM_P1;HPM_P2
2021/01/21 00:01:47;;;;;;;4.97;3.03;;;4.10;80.50;;;;;;5048671;23;20618;-68
2021/01/21 00:04:12;;;;;;;6.10;3.73;;;4.00;80.80;;;;;;5022200;28;20265;-68
2021/01/21 00:06:40;;;;;;;7.90;3.50;;;4.10;81.00;;;;;;5303084;23;20314;-68
2021/01/21 00:09:06;;;;;;;7.27;3.87;;;4.00;81.20;;;;;;5009537;28;20550;-68
2021/01/21 00:11:31;;;;;;;7.13;3.73;;;4.00;81.70;;;;;;5108960;23;21804;-68
2021/01/21 00:13:57;;;;;;;9.40;3.53;;;;;;;;;;5190670;23;20327;-68
2021/01/21 00:16:23;;;;;;;6.27;3.37;;;4.00;81.80;;;;;;5025809;28;20183;-68
2021/01/21 00:18:48;;;;;;;7.53;3.73;;;4.10;81.30;;;;;;5087152;23;20232;-68
2021/01/21 00:21:14;;;;;;;5.70;3.17;;;4.10;81.30;;;;;;4982080;28;20690;-68
2021/01/21 00:23:39;;;;;;;7.43;3.27;;;4.10;80.10;;;;;;5490893;23;20562;-68
2021/01/21 00:26:05;;;;;;;5.97;2.80;;;4.00;80.50;;;;;;5014909;28;20208;-68
2021/01/21 00:28:31;;;;;;;6.13;3.23;;;4.00;80.90;;;;;;5219237;23;21851;-68
2021/01/21 01:39:34;;;;;;;6.30;3.10;;;4.70;75.60;;;;;;5405276;22;20284;-68
2021/01/21 01:42:07;;;;;;;4.73;2.83;;;4.70;76.40;;;;;;5058505;28;20221;-68
2021/01/21 01:44:33;;;;;;;4.97;3.07;;;4.70;76.20;;;;;;5100872;23;20321;-68
2021/01/21 01:46:59;;;;;;;6.43;2.53;;;4.80;76.30;;;;;;5062645;28;20702;-68
2021/01/21 01:49:25;;;;;;;4.70;2.77;;;;;;;;;;5051322;22;20310;-68
2021/01/21 01:51:51;;;;;;;7.30;2.83;;;4.80;74.30;;;;;;5029024;23;20319;-68
2021/01/21 01:54:17;;;;;;;6.07;3.03;;;;;;;;;;5013685;28;20202;-68
2021/01/21 01:56:42;;;;;;;6.67;2.87;;;5.10;72.10;;;;;;5045856;22;20267;-68
2021/01/21 01:59:08;;;;;;;4.60;2.40;;;5.10;71.70;;;;;;5049270;23;20231;-68
2021/01/21 02:01:35;;;;;;;7.37;3.17;;;7.30;72.20;;;;;;5046017;28;20266;-68
2021/01/21 02:04:01;;;;;;;4.77;2.60;;;5.30;71.00;;;;;;5017539;23;20230;-68
2021/01/21 02:06:26;;;;;;;4.53;1.90;;;5.30;70.30;;;;;;5041350;23;20250;-68
2021/01/21 02:08:53;;;;;;;5.73;2.40;;;;;;;;;;5030336;28;20494;-68
2021/01/21 02:11:46;;;;;;;5.47;2.50;;;5.20;72.00;;;;;;5040532;23;20704;-68
2021/01/21 02:14:22;;;;;;;12.67;2.87;;;5.30;71.60;;;;;;5013282;23;20254;-68
2021/01/21 02:17:04;;;;;;;4.97;2.67;;;5.20;71.60;;;;;;5014718;23;20255;-68
2021/01/21 02:19:57;;;;;;;5.60;2.27;;;5.20;72.40;;;;;;5028739;23;20582;-68
2021/01/21 02:22:48;;;;;;;6.47;2.83;;;5.20;72.00;;;;;;5050181;23;20329;-68
2021/01/21 02:25:19;;;;;;;5.40;1.40;;;6.20;60.60;;;;;;5029138;23;20262;-67
2021/01/21 02:28:09;;;;;;;2.40;1.10;;;7.20;56.20;;;;;;5048282;23;20285;-67
2021/01/21 02:30:58;;;;;;;2.90;1.03;;;8.50;50.90;;;;;;5054161;23;20677;-67
2021/01/21 02:33:24;;;;;;;3.10;1.23;;;;;;;;;;5017369;22;20602;-67
2021/01/21 02:35:52;;;;;;;3.60;1.40;;;9.00;48.80;;;;;;4988686;28;20245;-67
2021/01/21 02:38:20;;;;;;;4.40;1.80;;;8.90;49.10;;;;;;5025827;23;20523;-67
2021/01/21 02:40:47;;;;;;;8.53;1.80;;;9.10;48.40;;;;;;5047700;28;20189;-67
2021/01/21 02:43:13;;;;;;;4.50;1.67;;;9.40;46.20;;;;;;5033223;23;20641;-67
2021/01/21 02:45:39;;;;;;;3.93;1.50;;;;;;;;;;5010969;23;20231;-67
2021/01/21 02:48:05;;;;;;;3.27;1.23;;;9.50;46.20;;;;;;5038158;28;20201;-67
2021/01/21 02:50:32;;;;;;;3.47;1.37;;;;;;;;;;5030641;23;20253;-67
2021/01/21 02:53:00;;;;;;;3.17;1.10;;;9.60;45.70;;;;;;5046156;23;20230;-67
2021/01/21 02:55:48;;;;;;;3.90;1.37;;;9.70;46.20;;;;;;5050996;22;20226;-67
2021/01/21 02:58:21;;;;;;;2.20;0.90;;;9.60;46.10;;;;;;5051038;23;20292;-67
2021/01/21 03:00:52;;;;;;;5.43;1.70;;;9.70;45.30;;;;;;5037495;23;20242;-67
2021/01/21 03:03:22;;;;;;;3.67;1.43;;;9.70;45.50;;;;;;5036602;23;21579;-67
2021/01/21 03:05:56;;;;;;;3.87;1.40;;;9.80;45.30;;;;;;5020027;28;20250;-68
2021/01/21 03:08:22;;;;;;;3.20;1.17;;;;;;;;;;5039126;22;20226;-67
2021/01/21 03:10:51;;;;;;;5.50;1.73;;;9.70;45.70;;;;;;5025070;23;606836;-67
2021/01/21 03:13:17;;;;;;;4.03;1.47;;;9.70;45.60;;;;;;5025004;28;20191;-68
2021/01/21 03:15:43;;;;;;;3.17;1.43;;;;;;;;;;5045405;23;20580;-67
2021/01/21 03:18:08;;;;;;;5.47;1.77;;;9.80;45.20;;;;;;5008480;28;20195;-67
2021/01/21 03:20:34;;;;;;;2.13;1.07;;;9.70;45.20;;;;;;5005089;23;20286;-67
2021/01/21 03:23:00;;;;;;;4.50;1.70;;;;;;;;;;4989042;28;20281;-67
2021/01/21 03:25:25;;;;;;;2.47;0.80;;;9.60;44.90;;;;;;5023185;23;20230;-67
2021/01/21 03:27:51;;;;;;;3.13;1.33;;;9.60;46.30;;;;;;5049411;23;20244;-67
2021/01/21 03:30:17;;;;;;;3.50;1.40;;;9.40;46.10;;;;;;5029271;28;20230;-67
2021/01/21 03:32:43;;;;;;;3.93;1.33;;;9.40;45.90;;;;;;5039635;23;20237;-67
2021/01/21 03:35:09;;;;;;;3.90;1.50;;;9.30;46.10;;;;;;5044472;28;20203;-68
2021/01/21 03:37:34;;;;;;;5.20;1.87;;;9.30;46.10;;;;;;5068118;22;20815;-67
2021/01/21 03:40:00;;;;;;;3.20;1.40;;;;;;;;;;5052352;22;20708;-67
2021/01/21 03:42:26;;;;;;;4.17;1.43;;;9.20;46.00;;;;;;5014349;28;20273;-68
2021/01/21 03:44:52;;;;;;;3.17;1.63;;;9.20;46.00;;;;;;5105562;23;20285;-67
2021/01/21 03:47:17;;;;;;;5.50;1.67;;;9.10;45.90;;;;;;5036686;22;20257;-67
2021/01/21 03:49:43;;;;;;;5.20;1.67;;;9.10;45.90;;;;;;5070217;23;20235;-67
2021/01/21 03:52:09;;;;;;;4.27;1.40;;;;;;;;;;5061122;22;20239;-67
2021/01/21 03:54:34;;;;;;;6.10;1.63;;;9.20;46.00;;;;;;5035164;22;20229;-67
2021/01/21 03:57:00;;;;;;;3.93;1.60;;;9.10;45.90;;;;;;5030032;28;20669;-67
2021/01/21 03:59:26;;;;;;;3.90;1.43;;;9.10;45.90;;;;;;5066895;23;20592;-68
2021/01/21 04:01:51;;;;;;;3.20;1.33;;;9.20;45.00;;;;;;5037607;23;23129;-67
2021/01/21 04:04:17;;;;;;;2.80;1.30;;;;;;;;;;5010274;28;20721;-67
2021/01/21 04:06:43;;;;;;;3.67;1.23;;;;;;;;;;5080388;23;20218;-66
2021/01/21 04:09:09;;;;;;;3.80;1.60;;;9.40;45.40;;;;;;5062768;28;20194;-68
2021/01/21 04:11:35;;;;;;;4.00;1.57;;;9.40;44.90;;;;;;5058692;23;20598;-67
2021/01/21 04:14:01;;;;;;;2.67;1.07;;;;;;;;;;5047030;23;20309;-67
2021/01/21 04:16:27;;;;;;;2.73;1.27;;;;;;;;;;5067150;22;20222;-67
2021/01/21 04:18:52;;;;;;;3.27;1.17;;;9.70;44.30;;;;;;5039891;23;20763;-67
2021/01/21 04:21:18;;;;;;;3.77;1.30;;;;;;;;;;5021160;23;20243;-66
2021/01/21 04:23:44;;;;;;;2.57;1.20;;;;;;;;;;5028397;23;20233;-66
2021/01/21 04:26:10;;;;;;;3.73;1.43;;;9.70;44.50;;;;;;5027549;23;20265;-66
2021/01/21 04:28:36;;;;;;;4.53;1.60;;;;;;;;;;5026025;28;20273;-67
2021/01/21 04:31:02;;;;;;;3.83;1.47;;;;;;;;;;5038055;23;20243;-67
2021/01/21 04:33:27;;;;;;;3.67;1.57;;;9.80;45.10;;;;;;5005519;28;20640;-67
2021/01/21 04:35:53;;;;;;;6.43;1.73;;;;;;;;;;5043195;23;20319;-67
2021/01/21 04:38:19;;;;;;;4.97;1.73;;;;;;;;;;5021747;28;20197;-67
2021/01/21 04:40:45;;;;;;;2.03;1.00;;;9.70;46.40;;;;;;5013063;23;20559;-66
2021/01/21 04:43:11;;;;;;;2.83;1.30;;;;;;;;;;5032469;28;20200;-67
2021/01/21 04:45:37;;;;;;;4.57;1.73;;;9.80;45.50;;;;;;5048053;23;20701;-67
2021/01/21 04:48:05;;;;;;;4.73;1.83;;;9.70;45.70;;;;;;5046616;22;20234;-67
2021/01/21 04:50:31;;;;;;;5.83;2.00;;;9.80;46.50;;;;;;5038343;28;20187;-67
2021/01/21 04:52:59;;;;;;;4.23;1.67;;;9.70;46.40;;;;;;5036759;23;20261;-67
2021/01/21 04:55:33;;;;;;;3.83;1.60;;;9.70;46.00;;;;;;5014674;28;20634;-67
2021/01/21 04:58:17;;;;;;;6.33;2.07;;;9.80;46.50;;;;;;5059502;23;20230;-68
2021/01/21 05:00:44;;;;;;;5.97;1.70;;;9.90;45.80;;;;;;5032031;23;20231;-66
2021/01/21 05:03:11;;;;;;;3.13;1.30;;;9.80;46.50;;;;;;5042303;28;20195;-67
2021/01/21 05:05:37;;;;;;;3.00;1.10;;;9.90;46.50;;;;;;5030761;23;20553;-66
2021/01/21 05:08:03;;;;;;;2.77;1.20;;;;;;;;;;5030583;22;20236;-66
2021/01/21 05:10:29;;;;;;;3.13;1.43;;;;;;;;;;5043683;22;20239;-66
2021/01/21 05:12:55;;;;;;;3.63;1.33;;;;;;;;;;5020812;28;20184;-66
2021/01/21 05:15:21;;;;;;;3.27;1.37;;;;;;;;;;5038494;23;20231;-66
2021/01/21 05:17:47;;;;;;;3.60;1.53;;;;;;;;;;5024196;23;20238;-66
2021/01/21 05:20:13;;;;;;;3.60;1.60;;;;;;;;;;5031283;23;20250;-66
2021/01/21 05:22:39;;;;;;;8.33;2.17;;;9.60;46.30;;;;;;5038494;23;20641;-67
2021/01/21 05:25:06;;;;;;;2.80;1.20;;;9.60;46.50;;;;;;5028608;28;20178;-66
2021/01/21 05:27:32;;;;;;;3.37;1.17;;;9.50;46.80;;;;;;5011368;23;20254;-66
2021/01/21 05:30:03;;;;;;;3.20;1.43;;;9.50;47.30;;;;;;5034444;23;20358;-67
2021/01/21 05:32:30;;;;;;;2.17;1.00;;;9.50;47.70;;;;;;5049154;23;20253;-66
2021/01/21 05:34:55;;;;;;;5.30;1.67;;;9.50;48.20;;;;;;5040224;22;20227;-67
2021/01/21 05:37:21;;;;;;;3.70;1.57;;;9.50;47.80;;;;;;5019432;28;20238;-66
2021/01/21 05:39:47;;;;;;;3.43;1.43;;;9.50;47.90;;;;;;5040083;23;20336;-67
2021/01/21 05:42:13;;;;;;;4.70;1.70;;;9.40;48.60;;;;;;5027878;23;20235;-67
2021/01/21 05:44:39;;;;;;;3.73;1.47;;;9.50;48.00;;;;;;5024566;23;20238;-66
2021/01/21 05:47:07;;;;;;;3.63;1.40;;;9.40;48.00;;;;;;5003822;28;20227;-66
2021/01/21 05:49:34;;;;;;;5.93;1.97;;;9.40;48.00;;;;;;5026780;23;20325;-66
2021/01/21 05:52:00;;;;;;;2.97;1.40;;;9.40;47.80;;;;;;5027387;23;20638;-66
2021/01/21 05:54:27;;;;;;;3.90;1.60;;;9.40;48.10;;;;;;5046142;23;20236;-67
2021/01/21 05:57:00;;;;;;;5.57;1.90;;;9.40;47.80;;;;;;5036041;28;20198;-66
2021/01/21 05:59:28;;;;;;;7.00;1.60;;;9.60;47.20;;;;;;5038286;22;20263;-66
2021/01/21 06:01:55;;;;;;;6.00;1.77;;;9.60;48.00;;;;;;5036409;22;20403;-67
2021/01/21 06:04:29;;;;;;;3.20;1.37;;;9.50;48.20;;;;;;5072120;22;20229;-67
2021/01/21 06:06:55;;;;;;;4.03;1.43;;;9.40;48.30;;;;;;5072873;23;20302;-67
2021/01/21 06:09:25;;;;;;;3.33;1.40;;;9.50;48.30;;;;;;5223466;22;20239;-67
2021/01/21 06:11:52;;;;;;;4.20;1.67;;;9.40;48.40;;;;;;5037496;23;20708;-67
2021/01/21 06:14:23;;;;;;;3.07;1.23;;;9.50;48.30;;;;;;5162828;23;20264;-67
2021/01/21 06:16:50;;;;;;;4.00;1.80;;;9.50;48.40;;;;;;5042820;23;20226;-67
2021/01/21 06:19:16;;;;;;;4.43;1.37;;;;;;;;;;5045127;23;20324;-67
2021/01/21 06:21:47;;;;;;;3.23;1.00;;;9.60;48.70;;;;;;5020453;28;20529;-67
2021/01/21 06:24:18;;;;;;;3.27;1.87;;;9.60;48.90;;;;;;5041237;23;20234;-66
2021/01/21 06:26:49;;;;;;;7.13;1.93;;;9.60;48.70;;;;;;5057414;23;20264;-66
2021/01/21 06:29:19;;;;;;;3.20;1.50;;;9.60;49.00;;;;;;5055539;22;20687;-67
2021/01/21 06:31:48;;;;;;;7.00;2.33;;;9.50;49.60;;;;;;5018979;23;20294;-67
2021/01/21 06:34:19;;;;;;;4.20;1.60;;;9.60;49.30;;;;;;5087401;23;20237;-66
2021/01/21 06:36:57;;;;;;;5.23;1.77;;;9.70;48.90;;;;;;5084880;23;20276;-66
2021/01/21 06:39:32;;;;;;;5.27;1.87;;;9.70;49.10;;;;;;5439135;23;20233;-66
2021/01/21 06:41:59;;;;;;;3.13;1.13;;;9.60;49.60;;;;;;5038574;28;20241;-66
2021/01/21 06:44:25;;;;;;;2.93;1.30;;;9.60;49.60;;;;;;5067205;23;20229;-66
2021/01/21 06:46:53;;;;;;;5.00;1.70;;;9.60;49.90;;;;;;5181400;22;20230;-66
2021/01/21 06:49:19;;;;;;;3.47;1.23;;;9.60;49.90;;;;;;5024113;28;20183;-67
2021/01/21 06:51:47;;;;;;;3.23;1.50;;;9.60;50.50;;;;;;5039769;28;20190;-67
2021/01/21 06:54:15;;;;;;;3.93;1.40;;;9.70;49.60;;;;;;5035074;23;20266;-67
2021/01/21 06:56:40;;;;;;;2.97;1.30;;;9.70;50.00;;;;;;5010992;28;20531;-68
2021/01/21 06:59:06;;;;;;;2.87;1.37;;;;;;;;;;5053364;23;20234;-66
2021/01/21 07:01:32;;;;;;;3.77;1.47;;;9.60;52.00;;;;;;5034167;28;20270;-67
2021/01/21 07:03:59;;;;;;;3.57;1.50;;;9.60;52.60;;;;;;5044008;23;20230;-67
2021/01/21 07:06:24;;;;;;;4.23;1.87;;;9.50;54.90;;;;;;5033172;28;20206;-68
2021/01/21 07:09:07;;;;;;;3.73;1.87;;;9.40;54.80;;;;;;5059241;23;20231;-67
2021/01/21 07:11:34;;;;;;;3.30;1.20;;;9.40;54.80;;;;;;5057576;22;20237;-67
2021/01/21 07:14:00;;;;;;;3.57;1.67;;;9.40;54.10;;;;;;5118485;23;20727;-67
2021/01/21 07:16:26;;;;;;;3.40;1.53;;;;;;;;;;5328606;23;20230;-67
2021/01/21 07:18:54;;;;;;;5.00;1.73;;;9.40;54.40;;;;;;5338721;23;20237;-67
2021/01/21 07:21:24;;;;;;;3.77;1.63;;;9.60;53.40;;;;;;5044482;23;20239;-67
2021/01/21 07:23:54;;;;;;;3.37;1.43;;;9.70;53.10;;;;;;5018987;23;20250;-67
2021/01/21 07:26:28;;;;;;;6.23;1.37;;;9.80;52.80;;;;;;5037596;23;20582;-67
2021/01/21 07:29:13;;;;;;;4.00;1.40;;;9.80;53.00;;;;;;5043197;22;20308;-66
2021/01/21 07:31:51;;;;;;;3.07;1.33;;;9.80;52.90;;;;;;5036864;23;20289;-67
2021/01/21 07:34:24;;;;;;;4.23;1.77;;;9.90;53.20;;;;;;5077135;23;20709;-68
2021/01/21 07:37:27;;;;;;;4.70;1.70;;;9.90;53.10;;;;;;5070622;23;20235;-67
2021/01/21 07:39:56;;;;;;;3.43;1.67;;;9.90;54.30;;;;;;5349809;23;20310;-67
2021/01/21 07:42:33;;;;;;;4.03;1.53;;;10.00;52.10;;;;;;5097254;22;20285;-67
2021/01/21 07:45:09;;;;;;;4.10;1.83;;;10.00;52.60;;;;;;5058548;22;20314;-68
2021/01/21 07:47:40;;;;;;;4.27;1.57;;;9.90;54.00;;;;;;5226220;22;20537;-67
2021/01/21 07:50:36;;;;;;;2.77;1.20;;;10.00;52.80;;;;;;5025186;22;20250;-67
2021/01/21 07:53:16;;;;;;;5.97;1.80;;;10.10;52.60;;;;;;5061104;22;20226;-67
2021/01/21 07:55:42;;;;;;;4.00;1.53;;;10.10;52.50;;;;;;5063965;23;20234;-67
2021/01/21 07:58:21;;;;;;;4.83;1.40;;;10.20;52.50;;;;;;5330709;23;20234;-66
2021/01/21 08:00:49;;;;;;;4.60;1.60;;;10.20;52.70;;;;;;5017013;23;20233;-67
2021/01/21 08:03:24;;;;;;;3.37;1.00;;;10.30;53.00;;;;;;5035323;23;20235;-66
2021/01/21 08:05:51;;;;;;;5.60;1.87;;;10.30;54.70;;;;;;5059844;23;20320;-67
2021/01/21 08:08:23;;;;;;;5.07;1.50;;;10.30;56.00;;;;;;5036924;22;20231;-67
2021/01/21 08:13:24;;;;;;;2.70;1.20;;;10.00;60.10;;;;;;5586994;22;20298;-68
2021/01/21 08:31:37;;;;;;;5.43;1.63;;;9.60;67.90;;;;;;5608726;23;20291;-68
2021/01/21 08:34:07;;;;;;;5.37;1.63;;;9.50;67.50;;;;;;4997333;23;20242;-68
2021/01/21 08:39:07;;;;;;;3.67;1.40;;;;;;;;;;5059014;22;20598;-69
2021/01/21 08:41:33;;;;;;;5.47;2.40;;;9.70;67.20;;;;;;5455553;23;20231;-68
2021/01/21 08:44:02;;;;;;;4.40;1.43;;;9.80;66.10;;;;;;5005399;28;20250;-68
2021/01/21 08:46:28;;;;;;;4.23;1.50;;;9.80;66.00;;;;;;5058761;22;20250;-68
2021/01/21 08:51:25;;;;;;;4.80;1.70;;;9.80;70.40;;;;;;5228760;23;20239;-68
2021/01/21 08:53:50;;;;;;;3.37;1.23;;;9.70;70.00;;;;;;5033317;28;20285;-68
2021/01/21 09:01:42;;;;;;;4.10;1.43;;;9.90;68.30;;;;;;5592900;23;20262;-68
2021/01/21 09:27:32;;;;;;;22.30;2.87;;;10.30;65.30;;;;;;5884177;22;20245;-68
2021/01/21 09:30:04;;;;;;;3.70;1.53;;;10.20;67.10;;;;;;5396393;23;20250;-68
2021/01/21 09:32:38;;;;;;;6.43;1.80;;;10.10;69.90;;;;;;5175709;23;20238;-68
2021/01/21 09:35:05;;;;;;;2.73;0.97;;;;;;;;;;5097744;23;20229;-68
2021/01/21 09:39:59;;;;;;;2.93;1.17;;;;;;;;;;5281541;22;20234;-68
2021/01/21 09:50:13;;;;;;;2.70;0.93;;;;;;;;;;5510085;22;20677;-68
2021/01/21 09:55:15;;;;;;;3.57;1.13;;;9.10;92.70;;;;;;5967127;22;23097;-70
2021/01/21 09:57:41;;;;;;;15.90;2.10;;;9.00;92.80;;;;;;5974608;22;20167;-69
2021/01/21 10:31:07;;;;;;;5.67;1.90;;;8.10;99.60;;;;;;5966025;22;20296;-67
2021/01/21 10:38:44;;;;;;;2.13;0.93;;;8.00;99.20;;;;;;5929083;22;20233;-67
2021/01/21 10:41:10;;;;;;;4.13;1.60;;;8.00;99.90;;;;;;5215373;22;20233;-67
2021/01/21 10:46:05;;;;;;;1.57;0.70;;;;;;;;;;5430489;22;20322;-69
2021/01/21 10:53:42;;;;;;;26.03;3.30;;;7.90;97.00;;;;;;6039507;22;21717;-69
2021/01/21 10:56:07;;;;;;;24.30;3.27;;;7.90;96.80;;;;;;5573157;23;20214;-69
2021/01/21 10:58:33;;;;;;;3.93;1.13;;;7.90;97.50;;;;;;5524209;22;20284;-69
2021/01/21 11:06:03;;;;;;;2.03;0.90;;;;;;;;;;5439812;22;20313;-69
2021/01/21 11:08:29;;;;;;;3.37;1.13;;;;;;;;;;5336215;22;20371;-70
2021/01/21 11:10:55;;;;;;;1.80;0.63;;;8.00;95.80;;;;;;5089811;23;20635;-69
2021/01/21 11:18:32;;;;;;;3.10;1.03;;;;;;;;;;5949499;22;20328;-67
2021/01/21 11:20:58;;;;;;;2.10;0.80;;;;;;;;;;5612526;23;20230;-68
2021/01/21 11:23:24;;;;;;;3.00;1.03;;;;;;;;;;5630770;22;20241;-67
2021/01/21 11:36:12;;;;;;;2.17;0.90;;;;;;;;;;5683889;23;21049;-68
2021/01/21 11:38:38;;;;;;;3.03;1.23;;;;;;;;;;5177145;23;20240;-69
2021/01/21 11:51:28;;;;;;;2.47;0.90;;;;;;;;;;5444555;22;20689;-68
2021/01/21 11:53:53;;;;;;;3.87;1.27;;;8.10;91.60;;;;;;5082068;22;20258;-68
2021/01/21 12:14:30;;;;;;;2.83;0.93;;;8.60;81.50;;;;;;5808746;22;20230;-68
2021/01/21 12:16:56;;;;;;;1.00;0.47;;;8.70;75.90;;;;;;5046768;23;20270;-69
2021/01/21 12:21:57;;;;;;;27.80;3.27;;;8.90;71.60;;;;;;6031676;22;21957;-69
2021/01/21 12:24:23;;;;;;;2.03;0.73;;;;;;;;;;5191072;23;20239;-68
2021/01/21 12:26:48;;;;;;;2.70;1.00;;;8.90;71.10;;;;;;5259824;23;20232;-68
2021/01/21 12:29:14;;;;;;;2.67;0.97;;;;;;;;;;5210544;23;20221;-68
2021/01/21 12:31:40;;;;;;;3.43;0.60;;;;;;;;;;5046953;28;20321;-68
2021/01/21 12:34:06;;;;;;;5.77;1.70;;;;;;;;;;5367154;22;20262;-68
2021/01/21 12:49:31;;;;;;;3.93;1.30;;;8.80;66.60;;;;;;5057041;23;20270;-67
2021/01/21 12:51:56;;;;;;;9.63;1.60;;;8.90;67.30;;;;;;5819304;23;20187;-67
2021/01/21 12:54:22;;;;;;;13.30;1.60;;;;;;;;;;5607089;23;20321;-67
2021/01/21 12:56:48;;;;;;;3.77;1.47;;;;;;;;;;5336552;23;20236;-67
2021/01/21 12:59:14;;;;;;;2.23;0.77;;;8.70;65.30;;;;;;5380475;23;20227;-68
2021/01/21 13:01:40;;;;;;;2.67;1.17;;;8.70;65.10;;;;;;5027378;28;20306;-68
2021/01/21 13:04:06;;;;;;;3.33;1.00;;;;;;;;;;5306849;23;20592;-68
2021/01/21 13:14:19;;;;;;;3.37;1.03;;;;;;;;;;5657919;22;20467;-68
2021/01/21 13:19:21;;;;;;;17.50;1.80;;;;;;;;;;5541942;22;20653;-68
2021/01/21 13:34:45;;;;;;;1.87;0.77;;;8.80;62.90;;;;;;5151989;22;20644;-68
2021/01/21 13:37:11;;;;;;;3.03;1.27;;;;;;;;;;5033597;23;20270;-68
2021/01/21 13:39:37;;;;;;;2.30;1.10;;;8.90;63.00;;;;;;5601367;23;20231;-67
2021/01/21 13:42:03;;;;;;;2.50;1.00;;;8.80;62.90;;;;;;5275570;22;20325;-67
2021/01/21 13:44:28;;;;;;;3.73;1.13;;;8.80;62.00;;;;;;5189245;23;20681;-67
2021/01/21 13:46:54;;;;;;;5.97;1.00;;;8.80;62.90;;;;;;5025503;28;20202;-67
2021/01/21 13:49:20;;;;;;;3.37;1.20;;;;;;;;;;5266797;23;20226;-67
2021/01/21 13:51:46;;;;;;;3.63;1.63;;;8.70;61.20;;;;;;5006629;28;20217;-67
2021/01/21 13:54:11;;;;;;;3.37;1.10;;;8.80;61.80;;;;;;5260323;23;20689;-67
2021/01/21 13:56:38;;;;;;;2.00;0.77;;;8.70;61.20;;;;;;5047877;28;20198;-67
2021/01/21 13:59:03;;;;;;;16.60;1.93;;;8.80;61.10;;;;;;5564755;22;20214;-66
2021/01/21 14:04:05;;;;;;;2.37;0.70;;;8.80;61.00;;;;;;5185050;22;20252;-67
2021/01/21 14:06:31;;;;;;;2.00;1.10;;;8.80;61.40;;;;;;5222697;23;20688;-66
2021/01/21 14:09:00;;;;;;;1.43;0.53;;;8.80;60.80;;;;;;5644626;22;20302;-66
2021/01/21 14:11:26;;;;;;;3.03;1.03;;;8.80;61.80;;;;;;5043668;28;20187;-67
2021/01/21 14:13:52;;;;;;;2.47;0.80;;;;;;;;;;5243254;23;20229;-67
2021/01/21 14:16:18;;;;;;;10.07;1.17;;;;;;;;;;5639929;22;20214;-67
2021/01/21 14:18:44;;;;;;;3.43;1.10;;;8.80;61.40;;;;;;5026725;28;20199;-66
2021/01/21 14:23:45;;;;;;;1.93;0.70;;;8.90;60.80;;;;;;5512475;22;20232;-67
2021/01/21 14:26:11;;;;;;;2.93;1.00;;;;;;;;;;5021031;28;20202;-65
2021/01/21 14:28:37;;;;;;;4.83;1.40;;;8.80;61.30;;;;;;5123182;23;20265;-67
2021/01/21 14:31:03;;;;;;;4.37;1.30;;;8.80;62.20;;;;;;5016860;28;20659;-67
2021/01/21 14:33:29;;;;;;;2.70;0.80;;;8.80;61.60;;;;;;5089183;23;20245;-68
2021/01/21 14:35:55;;;;;;;11.33;1.47;;;;;;;;;;5324565;22;20323;-66
2021/01/21 14:38:21;;;;;;;1.20;0.53;;;8.80;60.90;;;;;;5454746;22;20665;-71
2021/01/21 14:43:23;;;;;;;3.13;1.23;;;8.80;61.10;;;;;;5140407;22;20711;-70
2021/01/21 14:56:05;;;;;;;4.33;1.50;;;8.80;61.40;;;;;;5462358;23;675910;-72
2021/01/21 14:58:31;;;;;;;3.90;1.10;;;8.80;60.50;;;;;;5762468;23;20297;-72
2021/01/21 15:50:16;;;;;;;17.83;2.40;;;8.50;65.30;;;;;;6015264;22;22060;-72
2021/01/21 16:03:06;;;;;;;16.10;2.10;;;8.30;69.60;;;;;;5992849;22;22062;-73
2021/01/21 16:15:55;;;;;;;5.40;1.73;;;;;;;;;;5971316;22;20241;-72
2021/01/21 16:20:56;;;;;;;5.37;1.33;;;;;;;;;;5180680;22;20241;-70
2021/01/21 16:23:23;;;;;;;1.90;0.97;;;;;;;;;;5036366;23;20234;-69
2021/01/21 16:25:49;;;;;;;3.80;1.33;;;;;;;;;;5074277;22;20249;-69
2021/01/21 16:28:15;;;;;;;2.30;1.13;;;8.10;73.80;;;;;;5385608;23;20682;-68
2021/01/21 16:35:46;;;;;;;8.87;1.33;;;;;;;;;;5671916;22;20228;31
2021/01/21 16:38:12;;;;;;;2.20;0.90;;;8.20;75.20;;;;;;5461057;23;20242;-72
2021/01/21 16:40:38;;;;;;;21.33;2.87;;;;;;;;;;5487147;23;20214;-70
2021/01/21 16:43:04;;;;;;;2.93;1.30;;;8.10;76.50;;;;;;5291947;22;20279;-72
2021/01/21 16:45:30;;;;;;;3.63;1.43;;;8.10;77.00;;;;;;5177582;22;20236;-72
2021/01/21 16:47:55;;;;;;;22.57;3.13;;;8.00;77.40;;;;;;5367968;22;21575;-72
2021/01/21 16:50:21;;;;;;;2.90;1.13;;;8.00;78.60;;;;;;5641679;23;21434;-72
2021/01/21 16:52:47;;;;;;;4.20;1.33;;;8.00;79.10;;;;;;5060494;22;20269;-66
2021/01/21 16:55:13;;;;;;;5.07;1.43;;;;;;;;;;5052894;28;20170;-66
2021/01/21 16:57:39;;;;;;;5.63;2.00;;;;;;;;;;5050707;28;20525;-72
2021/01/21 17:00:09;;;;;;;33.33;4.13;;;7.90;81.00;;;;;;5417087;22;20214;-72
2021/01/21 17:02:35;;;;;;;2.30;0.80;;;;;;;;;;5548816;22;20878;-73
2021/01/21 17:10:13;;;;;;;18.00;2.30;;;;;;;;;;5635924;22;20563;-69
2021/01/21 17:15:08;;;;;;;4.50;1.57;;;8.00;81.60;;;;;;5122666;23;20223;-69
2021/01/21 17:20:11;;;;;;;3.77;1.53;;;8.10;80.90;;;;;;5760825;22;20329;-69
2021/01/21 17:25:13;;;;;;;4.67;1.37;;;8.00;81.10;;;;;;5543424;22;20307;-69
2021/01/21 17:27:39;;;;;;;5.00;1.60;;;;;;;;;;5410974;23;22124;-70
2021/01/21 17:35:11;;;;;;;8.50;1.40;;;;;;;;;;5709303;22;20232;-71
2021/01/21 17:40:06;;;;;;;17.03;2.07;;;8.30;80.30;;;;;;5370907;22;20278;-70
2021/01/21 17:47:36;;;;;;;11.33;1.80;;;;;;;;;;5522939;22;20244;-69
2021/01/21 17:50:02;;;;;;;35.73;3.83;;;8.30;80.10;;;;;;5363952;22;20371;-65
2021/01/21 17:52:28;;;;;;;3.17;1.20;;;;;;;;;;5016556;28;20196;-69
2021/01/21 17:54:54;;;;;;;3.17;1.20;;;;;;;;;;5387441;22;20770;-69
2021/01/21 17:57:20;;;;;;;3.67;1.27;;;;;;;;;;5359043;23;20234;-69
2021/01/21 17:59:46;;;;;;;9.37;4.10;;;8.40;81.80;;;;;;5454588;23;20234;-69
2021/01/21 18:02:12;;;;;;;3.17;1.50;;;;;;;;;;5041969;28;20231;-69
2021/01/21 18:04:37;;;;;;;27.40;3.20;;;8.50;82.10;;;;;;5667678;22;20216;-69
2021/01/21 18:09:40;;;;;;;6.37;4.37;;;8.40;82.80;;;;;;5095203;22;20234;-69
2021/01/21 18:14:42;;;;;;;2.50;1.17;;;;;;;;;;5771394;22;20230;-69
2021/01/21 18:17:08;;;;;;;2.50;1.07;;;8.50;84.60;;;;;;5050900;28;20217;-69
2021/01/21 18:19:35;;;;;;;2.70;1.10;;;8.50;86.40;;;;;;5050645;28;20190;-69
2021/01/21 18:22:02;;;;;;;5.83;1.10;;;8.60;86.50;;;;;;5092510;23;20706;-71
2021/01/21 18:24:28;;;;;;;4.57;1.33;;;;;;;;;;5115392;22;20294;-70
2021/01/21 18:26:54;;;;;;;4.17;1.53;;;8.70;86.90;;;;;;5253330;22;20238;-70
2021/01/21 18:29:20;;;;;;;23.80;2.97;;;;;;;;;;5275248;23;20248;-69
2021/01/21 18:31:46;;;;;;;3.83;1.27;;;8.60;87.80;;;;;;5042208;28;20198;-69
2021/01/21 18:34:11;;;;;;;13.13;1.80;;;8.70;87.90;;;;;;5306982;22;20300;-70
2021/01/21 18:36:37;;;;;;;4.80;1.20;;;;;;;;;;5714190;23;20363;-68
2021/01/21 18:39:03;;;;;;;20.40;2.70;;;8.80;88.00;;;;;;5513506;23;20214;-68
2021/01/21 18:41:29;;;;;;;4.23;1.63;;;;;;;;;;5544884;22;20222;-69
2021/01/21 18:43:55;;;;;;;4.40;1.40;;;8.90;87.30;;;;;;5592178;22;20280;-68
2021/01/21 18:48:58;;;;;;;5.30;1.60;;;;;;;;;;5979454;22;20549;-68
2021/01/21 18:51:24;;;;;;;4.27;1.67;;;;;;;;;;5050649;28;20699;-68
2021/01/21 18:56:26;;;;;;;33.10;4.00;;;;;;;;;;6165595;22;21738;-69
2021/01/21 18:58:51;;;;;;;2.80;1.03;;;8.90;88.80;;;;;;5121551;23;20280;-69
2021/01/21 19:01:17;;;;;;;3.20;1.23;;;8.90;89.00;;;;;;5145532;22;20218;-69
2021/01/21 19:03:43;;;;;;;3.33;1.17;;;;;;;;;;5150273;23;20262;-71
2021/01/21 19:06:08;;;;;;;3.93;1.57;;;8.90;89.60;;;;;;5221853;22;20322;-71
2021/01/21 19:16:11;;;;;;;2.70;1.20;;;9.10;88.30;;;;;;5701026;22;20233;-69
2021/01/21 19:18:37;;;;;;;21.00;2.53;;;9.10;88.30;;;;;;5573720;23;20257;-70
2021/01/21 19:21:03;;;;;;;6.27;1.33;;;9.10;88.60;;;;;;5510815;22;20352;-69
2021/01/21 19:26:04;;;;;;;11.47;6.17;;;;;;;;;;5373282;22;20390;-69
2021/01/21 19:28:30;;;;;;;8.87;1.63;;;9.10;90.20;;;;;;5112659;22;20359;-69
2021/01/21 19:30:56;;;;;;;3.77;1.20;;;;;;;;;;5450211;22;20988;-69
2021/01/21 19:38:33;;;;;;;2.97;1.30;;;;;;;;;;5649551;22;20242;-69
2021/01/21 19:40:59;;;;;;;2.90;1.33;;;;;;;;;;5451732;23;20675;-70
2021/01/21 19:46:02;;;;;;;4.23;1.60;;;;;;;;;;5077708;22;20810;-70
2021/01/21 19:53:40;;;;;;;3.33;1.20;;;;;;;;;;5319779;23;20233;-70
2021/01/21 19:56:06;;;;;;;3.47;1.30;;;;;;;;;;5029406;28;20515;-69
2021/01/21 20:03:44;;;;;;;23.60;3.13;;;;;;;;;;5780231;22;20247;-68
2021/01/21 20:06:18;;;;;;;4.53;1.77;;;9.80;84.10;;;;;;5316796;22;20241;-68
2021/01/21 20:08:44;;;;;;;8.50;2.57;;;;;;;;;;5120131;23;20618;-68
2021/01/21 20:11:10;;;;;;;4.30;1.57;;;;;;;;;;5198826;22;20258;-68
2021/01/21 20:13:36;;;;;;;7.80;2.37;;;10.10;80.00;;;;;;5267480;22;20237;-70
2021/01/21 20:16:07;;;;;;;4.73;1.80;;;10.20;80.50;;;;;;5103990;22;20250;-70
2021/01/21 20:18:33;;;;;;;5.57;2.10;;;;;;;;;;5081813;23;20248;-68
2021/01/21 20:20:59;;;;;;;5.77;1.97;;;;;;;;;;5053725;28;20629;-69
2021/01/21 20:23:25;;;;;;;9.40;2.40;;;;;;;;;;5517293;22;21272;-69
2021/01/21 20:25:51;;;;;;;2.73;1.33;;;;;;;;;;5050585;28;20175;-69
2021/01/21 20:28:16;;;;;;;3.73;1.60;;;10.20;80.60;;;;;;5053286;28;20182;-69
2021/01/21 20:30:42;;;;;;;2.43;1.00;;;10.40;78.70;;;;;;5739735;23;20241;-68
2021/01/21 20:33:07;;;;;;;3.23;1.17;;;10.40;78.40;;;;;;5034413;28;20195;-69